Vero Beach, FL (32963)

4:14 AM EDT on September 20, 2014 (GMT -0400)
SeaQuay-jacks1 | Change Station
CLOSE
Current Station
Personal Weather Station
Location: Vero Beach, FL
Elevation: 15 ft
Nearby Weather Stations

Elev 15 ft 27.67 °N, 80.36 °W | Updated 7 minutes ago

Mostly Cloudy
Mostly Cloudy
74.8 °F
Feels Like 73 °F
N
2.0
Wind Variable Wind from West
Gusts 3.0 mph

Today
High -- | Low -- °F
--% Chance of Precip.
Yesterday
High -- | Low -- °F
Precip. -- in
7:09 AM 7:20 PM
Waning Crescent, 14% visible
Pressure 29.89 in
Visibility 10.0 miles
Clouds Mostly Cloudy 1600 ft
Mostly Cloudy 2100 ft
Mostly Cloudy 12000 ft
Heat Index 73 °F
Dew Point 73 °F
Humidity 95%
Rainfall 0.07 in
Snow Depth Not available.
UV 0.0 out of 12
Pollen 2.40 out of 12
Air Quality Not available.
Flu Activity Not available.
METAR KVRB 200753Z AUTO 00000KT 10SM BKN016 BKN021 BKN120 22/21 A2989 RMK AO2 SLP120 T02220211

More Conditions Fewer Conditions

Pressure 29.89 in
Visibility 10.0 miles
Clouds Mostly Cloudy 1600 ft
Mostly Cloudy 2100 ft
Mostly Cloudy 12000 ft
Heat Index 73 °F
Dew Point 73 °F
Humidity 95%
Rainfall 0.07 in
Snow Depth Not available.
UV 0.0 out of 12
Pollen 2.40 out of 12
Air Quality Not available.
Flu Activity Not available.
METAR KVRB 200753Z AUTO 00000KT 10SM BKN016 BKN021 BKN120 22/21 A2989 RMK AO2 SLP120 T02220211

More Conditions Fewer Conditions

Nowcast | as of 3:30 am EDT on September 20, 2014

Areas of light rain will move to the northeast and north over locations from Orlando north through sunrise Saturday morning. After a brief break locations south of Orlando will see areas of light rain come in the area from southwest Florida. Additional details...including graphics are available online at: http://www.Srh.NOAA.Gov/mlb/blog.Php

×

10-Day Weather Forecast

Almanac

Astronomy

Sep. 20, 2014 Rise Set
Actual Time 7:09 AM EDT 7:20 PM EDT
Civil Twilight 6:45 AM EDT 7:43 PM EDT
Nautical Twilight 6:18 AM EDT 8:10 PM EDT
Astronomical Twilight 5:50 AM EDT 8:38 PM EDT
Moon 4:00 AM EDT 5:10 PM EDT
Length of Visible Light 12h 57m
Length of Day
12h 11m
Tomorrow will be 1m 38s shorter.
Waning Crescent, 14% of the Moon is Illuminated
Today
Waning Crescent
Sep 24
New
Oct 1
First Quarter
Oct 8
Full
Oct 15
Last Quarter

Today's Extremes

State Highs State Lows

Community

WunderPhotos

Upload Photos

1,754,793 photos uploaded!

WunderBlogs® & News

Nearby

Snow Depth

Station Depth Elevation
No new snow has been reported.

Earthquake Activity

City Distance Mag. Time & Date
No recent earthquake activity has been reported nearby.
Minimum magnitude displayed is 2.5.

Coastal Water Temperatures

Place Temperature
Lake Worth, FL 84.9 °F
Trident Pier, FL 84.0 °F
Virginia Key, FL 84.9 °F

Nearby Weather Stations